Terminal Aerodrome Forecast
Issued by NWS Wakefield, VA

Home | Current Version | Previous Version | Text Only | Print | Product List | Glossary On
Versions: 1 2 3 4 5 6 7 8 9 10 11 12 13 14 15
000
FTUS41 KAKQ 030535
TAFORF
TAF
KORF 030535Z 0306/0406 36004KT 6SM BR SCT007 BKN015
     FM030900 06004KT 4SM BR BKN007
     FM031300 09007KT P6SM BKN015 OVC030
     FM031700 11008KT P6SM BKN025 OVC040
     FM032000 15008KT 5SM -SHRA BKN030=

USA.gov is the U.S. government's official web portal to all federal, state and local government web resources and services.